.
WxDataArchive / Data Records for 2015-01-26
2015-01-25 January 2015 2015-01-27

Data Records for Monday, 26 January 2015

Time	Temp	Chill	HIndex	Humid	Dewpt	 Wind 	HiWind	WindDir	Rain 	Barom
-----	----	-----	------	-----	-----	------	------	-------	-----	-----
00:00	18.8	18.8	18.8	81	14.0	3	10	112	0.00	29.946 
00:05	18.6	18.6	18.6	80	13.5	2	9	90	0.00	29.946 
00:10	18.6	18.6	18.6	80	13.5	2	9	45	0.00	29.946 
00:15	18.6	18.6	18.6	80	13.5	2	10	45	0.00	29.949 
00:20	18.6	18.6	18.6	80	13.5	1	7	112	0.00	29.949 
00:25	18.6	18.6	18.6	80	13.5	1	3	112	0.00	29.949 
00:30	18.6	18.6	18.6	80	13.5	1	4	112	0.00	29.949 
00:35	18.6	18.6	18.6	80	13.5	2	6	112	0.00	29.949 
00:40	18.6	18.6	18.6	79	13.2	1	6	22	0.00	29.949 
00:45	18.6	18.6	18.6	78	12.9	1	6	68	0.00	29.947 
00:50	18.4	18.4	18.4	78	12.7	1	7	22	0.00	29.947 
00:55	18.4	18.4	18.4	78	12.7	2	9	68	0.00	29.947 
01:00	18.4	18.4	18.4	78	12.7	1	3	90	0.00	29.937 
01:05	18.4	18.4	18.4	78	12.7	1	3	45	0.00	29.937 
01:10	18.4	18.4	18.4	77	12.4	2	8	45	0.00	29.937 
01:15	18.4	18.4	18.4	76	12.1	2	8	90	0.00	29.934 
01:20	18.4	18.4	18.4	76	12.1	1	3	90	0.00	29.934 
01:25	18.4	18.4	18.4	74	11.5	2	7	45	0.00	29.934 
01:30	18.4	18.4	18.4	74	11.5	1	5	45	0.00	29.932 
01:35	18.6	18.6	18.6	74	11.7	1	4	90	0.00	29.932 
01:40	18.4	18.4	18.4	73	11.2	2	5	90	0.00	29.932 
01:45	18.4	18.4	18.4	73	11.2	1	4	68	0.00	29.933 
01:50	18.4	18.4	18.4	73	11.2	1	4	45	0.00	29.933 
01:55	18.4	18.4	18.4	73	11.2	1	5	45	0.00	29.933 
02:00	18.4	18.4	18.4	73	11.2	1	6	45	0.00	29.933 
02:05	18.4	18.4	18.4	73	11.2	1	4	68	0.00	29.933 
02:10	18.3	18.3	18.3	73	11.1	1	4	45	0.00	29.933 
02:15	18.3	18.3	18.3	72	10.8	1	7	45	0.00	29.937 
02:20	18.3	18.3	18.3	72	10.8	1	4	68	0.00	29.937 
02:25	18.3	18.3	18.3	72	10.8	1	4	90	0.00	29.937 
02:30	18.3	18.3	18.3	71	10.5	2	5	45	0.00	29.935 
02:35	18.3	18.3	18.3	71	10.5	0	4	45	0.00	29.935 
02:40	18.3	18.3	18.3	71	10.5	1	4	45	0.00	29.935 
02:45	18.3	18.3	18.3	72	10.8	0	2	90	0.00	29.946 
02:50	18.3	18.3	18.3	72	10.8	1	4	45	0.00	29.946 
02:55	18.3	18.3	18.3	71	10.5	1	4	45	0.00	29.946 
03:00	18.1	18.1	18.1	70	10.0	2	4	90	0.00	29.946 
03:05	18.1	18.1	18.1	71	10.3	1	5	90	0.00	29.946 
03:10	18.1	18.1	18.1	71	10.3	1	4	68	0.00	29.946 
03:15	18.1	18.1	18.1	70	10.0	1	7	68	0.00	29.946 
03:20	18.0	18.0	18.0	70	9.9	1	5	68	0.00	29.946 
03:25	17.8	17.8	17.8	70	9.7	1	3	45	0.00	29.946 
03:30	17.8	17.8	17.8	70	9.7	1	3	68	0.00	29.945 
03:35	17.5	17.5	17.5	70	9.4	1	4	22	0.00	29.945 
03:40	17.2	17.2	17.2	71	9.4	0	3	68	0.00	29.945 
03:45	16.9	16.9	16.9	71	9.2	0	3	22	0.00	29.952 
03:50	16.5	16.5	16.5	72	9.1	0	1	22	0.00	29.952 
03:55	16.4	16.4	16.4	72	9.0	0	2	22	0.00	29.952 
04:00	16.1	16.1	16.1	72	8.7	0	2	22	0.00	29.952 
04:05	15.9	15.9	15.9	72	8.5	0	2	22	0.00	29.952 
04:10	15.6	15.6	15.6	72	8.2	0	1	22	0.00	29.952 
04:15	15.4	15.4	15.4	73	8.3	0	2	22	0.00	29.956 
04:20	15.2	15.2	15.2	73	8.1	0	2	22	0.00	29.956 
04:25	15.1	15.1	15.1	73	8.0	0	1	22	0.00	29.956 
04:30	14.8	14.8	14.8	73	7.7	0	2	22	0.00	29.955 
04:35	14.6	14.6	14.6	73	7.5	0	2	22	0.00	29.955 
04:40	14.3	14.3	14.3	73	7.3	1	3	0	0.00	29.955 
04:45	14.1	14.1	14.1	73	7.1	0	2	0	0.00	29.948 
04:50	14.0	14.0	14.0	73	7.0	0	2	0	0.00	29.948 
04:55	13.6	13.6	13.6	73	6.6	0	1	0	0.00	29.948 
05:00	13.5	13.5	13.5	73	6.5	0	2	0	0.00	29.944 
05:05	13.1	13.1	13.1	74	6.4	0	2	0	0.00	29.944 
05:10	12.9	12.9	12.9	74	6.2	0	2	0	0.00	29.944 
05:15	12.6	12.6	12.6	74	5.9	0	2	0	0.00	29.942 
05:20	12.4	12.4	12.4	75	6.0	0	1	0	0.00	29.942 
05:25	12.3	12.3	12.3	75	5.9	0	1	0	0.00	29.942 
05:30	12.1	12.1	12.1	75	5.7	0	1	0	0.00	29.938 
05:35	11.7	11.7	11.7	76	5.6	0	1	0	0.00	29.938 
05:40	11.6	11.6	11.6	76	5.5	0	1	0	0.00	29.938 
05:45	11.6	11.6	11.6	77	5.8	0	1	0	0.00	29.937 
05:50	11.2	11.2	11.2	77	5.4	0	1	0	0.00	29.937 
05:55	11.1	11.1	11.1	77	5.3	0	2	0	0.00	29.937 
06:00	11.1	11.1	11.1	77	5.3	0	2	0	0.00	29.938 
06:05	10.9	10.9	10.9	78	5.4	0	1	0	0.00	29.938 
06:10	10.9	10.9	10.9	78	5.4	0	2	0	0.00	29.938 
06:15	10.7	10.7	10.7	78	5.2	0	1	0	0.00	29.946 
06:20	10.5	10.5	10.5	78	5.0	0	1	0	0.00	29.946 
06:25	10.4	10.4	10.4	78	4.9	0	1	0	0.00	29.946 
06:30	10.2	10.2	10.2	79	5.0	0	1	0	0.00	29.948 
06:35	10.0	10.0	10.0	79	4.8	0	0	---	0.00	29.948 
06:40	9.9	9.9	9.9	79	4.7	0	1	0	0.00	29.948 
06:45	9.9	9.9	9.9	79	4.7	0	1	0	0.00	29.949 
06:50	9.5	9.5	9.5	79	4.3	0	0	---	0.00	29.949 
06:55	9.5	9.5	9.5	80	4.6	0	1	0	0.00	29.949 
07:00	9.3	9.3	9.3	80	4.4	0	1	0	0.00	29.957 
07:05	9.3	9.3	9.3	80	4.4	0	1	0	0.00	29.957 
07:10	9.2	9.2	9.2	80	4.3	0	1	0	0.00	29.957 
07:15	9.2	9.2	9.2	80	4.3	0	1	0	0.00	29.973 
07:20	9.0	9.0	9.0	81	4.4	0	1	0	0.00	29.973 
07:25	9.0	9.0	9.0	81	4.4	0	1	0	0.00	29.973 
07:30	9.0	9.0	9.0	81	4.4	0	1	0	0.00	29.978 
07:35	8.8	8.8	8.8	81	4.2	0	1	0	0.00	29.978 
07:40	8.8	8.8	8.8	81	4.2	0	1	0	0.00	29.978 
07:45	8.6	8.6	8.6	81	4.0	0	0	---	0.00	29.977 
07:50	8.6	8.6	8.6	81	4.0	0	0	---	0.00	29.977 
07:55	8.4	8.4	8.4	81	3.8	0	0	---	0.00	29.977 
08:00	8.3	8.3	8.3	81	3.7	0	1	0	0.00	29.973 
08:05	8.3	8.3	8.3	81	3.7	0	0	---	0.00	29.973 
08:10	8.3	8.3	8.3	82	4.0	0	1	0	0.00	29.973 
08:15	8.3	8.3	8.3	82	4.0	0	0	---	0.00	29.979 
08:20	8.3	8.3	8.3	82	4.0	0	1	0	0.00	29.979 
08:25	8.4	8.4	8.4	82	4.1	0	1	0	0.00	29.979 
08:30	8.6	8.6	8.6	82	4.3	0	1	0	0.00	29.982 
08:35	9.0	9.0	9.0	83	4.9	0	1	0	0.00	29.982 
08:40	9.3	9.3	9.3	82	4.9	0	1	0	0.00	29.982 
08:45	9.7	9.7	9.7	82	5.3	0	1	0	0.00	29.983 
08:50	10.0	10.0	10.0	82	5.6	0	2	0	0.00	29.983 
08:55	10.4	10.4	10.4	82	6.0	0	1	0	0.00	29.983 
09:00	10.7	10.7	10.7	81	6.0	0	2	0	0.00	29.984 
09:05	11.1	11.1	11.1	81	6.4	0	3	0	0.00	29.984 
09:10	11.4	11.4	11.4	80	6.5	0	1	0	0.00	29.984 
09:15	11.6	11.6	11.6	80	6.6	0	2	0	0.00	29.988 
09:20	11.6	11.6	11.6	79	6.4	0	2	0	0.00	29.988 
09:25	11.9	11.9	11.9	79	6.7	0	2	0	0.00	29.988 
09:30	12.1	12.1	12.1	78	6.6	1	3	0	0.00	29.993 
09:35	12.4	12.4	12.4	78	6.9	0	2	0	0.00	29.993 
09:40	12.9	12.9	12.9	77	7.1	0	3	0	0.00	29.993 
09:45	13.5	13.5	13.5	77	7.7	0	2	0	0.00	29.989 
09:50	13.6	13.6	13.6	76	7.5	0	2	0	0.00	29.989 
09:55	14.0	14.0	14.0	76	7.9	0	1	0	0.00	29.989 
10:00	14.3	14.3	14.3	75	7.9	0	2	0	0.00	29.981 
10:05	14.3	14.3	14.3	74	7.6	0	1	0	0.00	29.981 
10:10	14.3	14.3	14.3	73	7.3	0	2	0	0.00	29.981 
10:15	14.3	14.3	14.3	74	7.6	0	1	0	0.00	29.983 
10:20	14.4	14.4	14.4	73	7.4	0	1	0	0.00	29.983 
10:25	14.6	14.6	14.6	73	7.5	0	2	0	0.00	29.983 
10:30	14.8	14.8	14.8	73	7.7	0	1	0	0.00	29.987 
10:35	14.9	14.9	14.9	73	7.8	0	1	0	0.00	29.987 
10:40	15.2	15.2	15.2	73	8.1	0	4	0	0.00	29.987 
10:45	15.4	15.4	15.4	72	8.0	0	2	90	0.00	29.981 
10:50	15.6	15.6	15.6	72	8.2	1	3	90	0.00	29.981 
10:55	15.7	15.7	15.7	71	8.0	0	3	90	0.00	29.981 
11:00	15.9	15.9	15.9	71	8.2	0	2	90	0.00	29.979 
11:05	16.2	16.2	16.2	71	8.5	0	1	90	0.00	29.979 
11:10	16.4	16.4	16.4	71	8.7	0	2	90	0.00	29.979 
11:15	16.5	16.5	16.5	71	8.8	1	3	90	0.00	29.981 
11:20	16.9	16.9	16.9	70	8.8	0	1	90	0.00	29.981 
11:25	17.2	17.2	17.2	70	9.1	0	2	90	0.00	29.981 
11:30	17.3	17.3	17.3	70	9.2	0	2	90	0.00	29.980 
11:35	17.7	17.7	17.7	71	9.9	0	1	90	0.00	29.980 
11:40	17.8	17.8	17.8	70	9.7	0	3	90	0.00	29.980 
11:45	18.0	18.0	18.0	69	9.6	1	3	90	0.00	29.974 
11:50	18.0	18.0	18.0	69	9.6	1	3	90	0.00	29.974 
11:55	18.1	18.1	18.1	70	10.0	0	1	90	0.00	29.974 
12:00	18.4	18.4	18.4	70	10.3	0	1	90	0.00	29.974 
12:05	18.8	18.8	18.8	68	10.0	1	3	90	0.00	29.974 
12:10	18.9	18.9	18.9	69	10.4	0	1	90	0.00	29.974 
12:15	19.2	19.2	19.2	69	10.7	0	2	90	0.00	29.973 
12:20	19.7	19.7	19.7	69	11.2	0	1	90	0.00	29.973 
12:25	20.0	20.0	20.0	69	11.5	0	1	90	0.00	29.973 
12:30	20.5	20.5	20.5	69	12.0	0	1	90	0.00	29.959 
12:35	21.0	21.0	21.0	69	12.5	0	1	90	0.00	29.959 
12:40	21.1	21.1	21.1	68	12.2	0	1	90	0.00	29.959 
12:45	21.3	21.3	21.3	67	12.1	0	1	90	0.00	29.953 
12:50	21.6	21.6	21.6	67	12.4	0	1	90	0.00	29.953 
12:55	21.9	21.9	21.9	67	12.7	0	1	90	0.00	29.953 
13:00	21.9	21.9	21.9	66	12.3	0	2	90	0.00	29.947 
13:05	22.1	22.1	22.1	66	12.5	0	1	90	0.00	29.947 
13:10	22.2	22.2	22.2	65	12.3	0	2	90	0.00	29.947 
13:15	22.2	22.2	22.2	65	12.3	0	2	90	0.00	29.940 
13:20	22.2	22.2	22.2	63	11.6	0	2	90	0.00	29.940 
13:25	22.4	22.4	22.4	64	12.1	0	1	90	0.00	29.940 
13:30	22.5	22.5	22.5	63	11.8	0	2	90	0.00	29.937 
13:35	22.5	22.5	22.5	61	11.1	0	1	90	0.00	29.937 
13:40	22.9	22.9	22.9	62	11.9	0	1	90	0.00	29.937 
13:45	22.7	22.7	22.7	60	10.9	0	2	90	0.00	29.936 
13:50	22.5	22.5	22.5	59	10.4	0	2	90	0.00	29.936 
13:55	22.5	22.5	22.5	60	10.7	0	1	90	0.00	29.936 
14:00	22.5	22.5	22.5	58	10.0	0	1	90	0.00	29.931 
14:05	22.7	22.7	22.7	59	10.6	0	2	90	0.00	29.931 
14:10	22.9	22.9	22.9	56	9.6	0	1	90	0.00	29.931 
14:15	23.2	23.2	23.2	56	9.9	0	1	90	0.00	29.923 
14:20	23.2	23.2	23.2	56	9.9	0	2	90	0.00	29.923 
14:25	23.3	23.3	23.3	55	9.6	0	1	90	0.00	29.923 
14:30	23.3	23.3	23.3	57	10.3	0	2	90	0.00	29.919 
14:35	23.3	23.3	23.3	56	10.0	0	1	90	0.00	29.919 
14:40	23.5	23.5	23.5	59	11.3	0	2	90	0.00	29.919 
14:45	23.3	23.3	23.3	60	11.5	0	2	90	0.00	29.918 
14:50	23.2	23.2	23.2	62	12.1	0	2	90	0.00	29.918 
14:55	23.3	23.3	23.3	61	11.9	0	2	90	0.00	29.918 
15:00	23.3	23.3	23.3	62	12.2	0	1	90	0.00	29.920 
15:05	23.3	23.3	23.3	61	11.9	0	2	90	0.00	29.920 
15:10	23.2	23.2	23.2	60	11.4	1	2	90	0.00	29.920 
15:15	23.2	23.2	23.2	61	11.8	0	2	90	0.00	29.924 
15:20	23.2	23.2	23.2	62	12.1	0	1	90	0.00	29.924 
15:25	23.2	23.2	23.2	60	11.4	0	2	90	0.00	29.924 
15:30	23.3	23.3	23.3	61	11.9	0	1	90	0.00	29.929 
15:35	23.8	23.8	23.8	61	12.3	0	1	45	0.00	29.929 
15:40	24.1	24.1	24.1	62	13.0	0	0	---	0.00	29.929 
15:45	24.4	24.4	24.4	59	12.2	0	1	45	0.00	29.931 
15:50	24.5	24.5	24.5	58	11.9	0	0	---	0.00	29.931 
15:55	24.5	24.5	24.5	58	11.9	0	0	---	0.00	29.931 
16:00	24.5	24.5	24.5	58	11.9	0	1	45	0.00	29.935 
16:05	24.7	24.7	24.7	57	11.7	0	1	45	0.00	29.935 
16:10	24.5	24.5	24.5	56	11.1	0	1	45	0.00	29.935 
16:15	24.5	24.5	24.5	56	11.1	0	0	---	0.00	29.939 
16:20	24.4	24.4	24.4	56	11.0	0	1	45	0.00	29.939 
16:25	24.2	24.2	24.2	54	10.0	0	1	45	0.00	29.939 
16:30	24.1	24.1	24.1	55	10.3	0	1	45	0.00	29.943 
16:35	24.1	24.1	24.1	54	9.9	0	1	45	0.00	29.943 
16:40	23.9	23.9	23.9	55	10.1	0	1	45	0.00	29.943 
16:45	23.8	23.8	23.8	54	9.6	0	1	45	0.00	29.948 
16:50	23.6	23.6	23.6	54	9.4	0	1	45	0.00	29.948 
16:55	23.5	23.5	23.5	59	11.3	0	1	45	0.00	29.948 
17:00	23.3	23.3	23.3	61	11.9	0	1	45	0.00	29.951 
17:05	23.0	23.0	23.0	63	12.3	0	1	45	0.00	29.951 
17:10	22.7	22.7	22.7	64	12.4	0	1	45	0.00	29.951 
17:15	22.4	22.4	22.4	65	12.4	0	1	45	0.00	29.954 
17:20	22.2	22.2	22.2	66	12.6	0	1	45	0.00	29.954 
17:25	21.9	21.9	21.9	67	12.7	0	1	45	0.00	29.954 
17:30	21.8	21.8	21.8	68	12.9	0	0	---	0.00	29.957 
17:35	21.6	21.6	21.6	68	12.7	0	0	---	0.00	29.957 
17:40	21.4	21.4	21.4	69	12.8	0	0	---	0.00	29.957 
17:45	21.3	21.3	21.3	69	12.7	0	0	---	0.00	29.957 
17:50	21.0	21.0	21.0	69	12.5	0	0	---	0.00	29.957 
17:55	20.8	20.8	20.8	69	12.3	0	1	45	0.00	29.957 
18:00	20.5	20.5	20.5	69	12.0	0	1	45	0.00	29.951 
18:05	20.2	20.2	20.2	70	12.0	0	0	---	0.00	29.951 
18:10	19.9	19.9	19.9	70	11.7	0	1	45	0.00	29.951 
18:15	19.7	19.7	19.7	70	11.5	0	0	---	0.00	29.960 
18:20	19.4	19.4	19.4	70	11.2	0	1	45	0.00	29.960 
18:25	19.1	19.1	19.1	71	11.3	0	0	---	0.00	29.960 
18:30	18.9	18.9	18.9	71	11.1	0	0	---	0.00	29.960 
18:35	18.8	18.8	18.8	72	11.3	0	0	---	0.00	29.960 
18:40	18.4	18.4	18.4	72	10.9	0	1	45	0.00	29.960 
18:45	18.3	18.3	18.3	72	10.8	0	1	45	0.00	29.959 
18:50	18.1	18.1	18.1	73	10.9	0	1	45	0.00	29.959 
18:55	18.1	18.1	18.1	73	10.9	0	1	45	0.00	29.959 
19:00	18.0	18.0	18.0	73	10.8	0	0	---	0.00	29.961 
19:05	18.0	18.0	18.0	74	11.1	0	0	---	0.00	29.961 
19:10	17.8	17.8	17.8	73	10.6	0	1	45	0.00	29.961 
19:15	17.7	17.7	17.7	74	10.8	0	1	45	0.00	29.964 
19:20	17.5	17.5	17.5	74	10.7	0	1	45	0.00	29.964 
19:25	17.5	17.5	17.5	75	11.0	0	0	---	0.00	29.964 
19:30	17.3	17.3	17.3	74	10.5	0	1	45	0.00	29.966 
19:35	17.3	17.3	17.3	75	10.8	0	1	45	0.00	29.966 
19:40	17.2	17.2	17.2	75	10.7	0	0	---	0.00	29.966 
19:45	17.2	17.2	17.2	75	10.7	0	0	---	0.00	29.976 
19:50	17.2	17.2	17.2	75	10.7	0	0	---	0.00	29.976 
19:55	17.3	17.3	17.3	75	10.8	0	0	---	0.00	29.976 
20:00	17.3	17.3	17.3	76	11.1	0	0	---	0.00	29.984 
20:05	17.2	17.2	17.2	76	11.0	0	0	---	0.00	29.984 
20:10	17.2	17.2	17.2	76	11.0	0	0	---	0.00	29.984 
20:15	17.3	17.3	17.3	76	11.1	0	0	---	0.00	29.990 
20:20	17.3	17.3	17.3	77	11.3	0	0	---	0.00	29.990 
20:25	17.5	17.5	17.5	77	11.5	0	0	---	0.00	29.990 
20:30	17.5	17.5	17.5	77	11.5	0	1	45	0.00	29.994 
20:35	17.7	17.7	17.7	77	11.7	0	0	---	0.00	29.994 
20:40	17.8	17.8	17.8	76	11.5	0	0	---	0.00	29.994 
20:45	18.0	18.0	18.0	76	11.7	0	0	---	0.00	29.996 
20:50	18.0	18.0	18.0	76	11.7	0	0	---	0.00	29.996 
20:55	18.1	18.1	18.1	75	11.5	0	0	---	0.00	29.996 
21:00	18.1	18.1	18.1	75	11.5	0	1	45	0.00	29.998 
21:05	18.1	18.1	18.1	75	11.5	0	0	---	0.00	29.998 
21:10	18.3	18.3	18.3	75	11.7	0	1	45	0.00	29.998 
21:15	18.3	18.3	18.3	74	11.4	0	1	45	0.00	29.993 
21:20	18.4	18.4	18.4	74	11.5	0	1	45	0.00	29.993 
21:25	18.4	18.4	18.4	74	11.5	0	0	---	0.00	29.993 
21:30	18.4	18.4	18.4	74	11.5	0	0	---	0.00	29.992 
21:35	18.4	18.4	18.4	74	11.5	0	0	---	0.00	29.992 
21:40	18.3	18.3	18.3	74	11.4	0	1	45	0.00	29.992 
21:45	18.3	18.3	18.3	75	11.7	0	0	---	0.00	29.992 
21:50	18.3	18.3	18.3	75	11.7	0	0	---	0.00	29.992 
21:55	18.1	18.1	18.1	75	11.5	0	1	45	0.00	29.992 
22:00	18.1	18.1	18.1	75	11.5	0	0	---	0.00	29.991 
22:05	18.1	18.1	18.1	76	11.8	0	1	45	0.00	29.991 
22:10	18.1	18.1	18.1	76	11.8	0	0	---	0.00	29.991 
22:15	18.0	18.0	18.0	76	11.7	0	0	---	0.00	29.989 
22:20	18.0	18.0	18.0	76	11.7	0	0	---	0.00	29.989 
22:25	18.0	18.0	18.0	75	11.4	0	1	45	0.00	29.989 
22:30	18.0	18.0	18.0	75	11.4	0	0	---	0.00	29.987 
22:35	18.0	18.0	18.0	76	11.7	0	0	---	0.00	29.987 
22:40	18.0	18.0	18.0	76	11.7	0	0	---	0.00	29.987 
22:45	18.0	18.0	18.0	76	11.7	0	0	---	0.00	29.988 
22:50	18.0	18.0	18.0	77	12.0	0	0	---	0.00	29.988 
22:55	18.0	18.0	18.0	77	12.0	0	0	---	0.00	29.988 
23:00	18.0	18.0	18.0	77	12.0	0	0	---	0.00	29.983 
23:05	18.0	18.0	18.0	77	12.0	0	0	---	0.00	29.983 
23:10	18.0	18.0	18.0	77	12.0	0	0	---	0.00	29.983 
23:15	18.0	18.0	18.0	77	12.0	0	0	---	0.00	29.981 
23:20	18.0	18.0	18.0	77	12.0	0	0	---	0.00	29.981 
23:25	18.0	18.0	18.0	77	12.0	0	0	---	0.00	29.981 
23:30	18.0	18.0	18.0	77	12.0	0	0	---	0.00	29.985 
23:35	18.0	18.0	18.0	77	12.0	0	0	---	0.00	29.985 
23:40	18.0	18.0	18.0	77	12.0	0	1	45	0.00	29.985 
23:45	18.0	18.0	18.0	77	12.0	0	0	---	0.00	29.982 
23:50	18.0	18.0	18.0	77	12.0	0	0	---	0.00	29.982 
23:55	18.0	18.0	18.0	78	12.3	0	0	---	0.00	29.982 

CoCoRaHS
IN-AL-39
A2 Web Hosting
Creative Commons License
GoDaddy
search engine by freefind advanced

loaded 2018-11-17 22:33:21 • last modified 2010-11-18 10:43:29
Privacy PolicyDisclaimer
• wx.awcolley.com is powered by PmWiki v.2002016 •
• all content (unless otherwise noted) © 2018 A W Colley